createdAt,value
2022-12-06T00:00:49.054Z,101764.06
2022-12-06T00:03:21.752Z,101773.38
2022-12-06T00:06:02.429Z,101772.63
2022-12-06T00:08:36.091Z,101770.69
2022-12-06T00:11:15.359Z,101776.22
2022-12-06T00:13:53.002Z,101771.03
2022-12-06T00:16:27.069Z,101772.69
2022-12-06T00:19:00.631Z,101773.38
2022-12-06T00:21:37.610Z,101779.53
2022-12-06T00:24:20.610Z,101774.66
2022-12-06T00:26:53.280Z,101765.44
2022-12-06T00:29:25.821Z,101767.97
2022-12-06T00:31:58.681Z,101768.06
2022-12-06T00:34:31.400Z,101765.78
2022-12-06T00:37:04.036Z,101768.28
2022-12-06T00:39:36.645Z,101768.34
2022-12-06T00:42:09.324Z,101765.78
2022-12-06T00:44:41.962Z,101768.13
2022-12-06T00:47:14.496Z,101761.31
2022-12-06T00:49:47.058Z,101764.53
2022-12-06T00:52:19.684Z,101770.81
2022-12-06T00:54:52.322Z,101773.38
2022-12-06T00:57:24.962Z,101772.63
2022-12-06T00:59:57.968Z,101771.72
2022-12-06T01:02:30.818Z,101769.84
2022-12-06T01:05:03.727Z,101764.81
2022-12-06T01:07:36.349Z,101771.22
2022-12-06T01:10:09.207Z,101766.38
2022-12-06T01:12:41.722Z,101771.19
2022-12-06T01:15:17.957Z,101772.69
2022-12-06T01:17:50.533Z,101766.56
2022-12-06T01:20:23.118Z,101770.97
2022-12-06T01:22:55.576Z,101770.91
2022-12-06T01:25:30.725Z,101774.41
2022-12-06T01:28:06.997Z,101772.47
2022-12-06T01:30:40.332Z,101779.66
2022-12-06T01:33:12.934Z,101776.81
2022-12-06T01:35:45.579Z,101775.94
2022-12-06T01:38:18.559Z,101774.53
2022-12-06T01:41:00.510Z,101776.13
2022-12-06T01:43:43.190Z,101773.59
2022-12-06T01:46:33.553Z,101770.16
2022-12-06T01:49:25.379Z,101771.25
2022-12-06T01:52:05.946Z,101763.19
2022-12-06T01:54:40.270Z,101761.28
2022-12-06T01:57:16.548Z,101768.13
2022-12-06T01:59:49.196Z,101762.38
2022-12-06T02:02:22.168Z,101757.09
2022-12-06T02:04:56.527Z,101757.75
2022-12-06T02:07:29.870Z,101770.00
2022-12-06T02:10:06.354Z,101759.22
2022-12-06T02:12:39.028Z,101767.34
2022-12-06T02:15:11.679Z,101767.44
2022-12-06T02:18:15.616Z,101771.78
2022-12-06T02:21:12.432Z,101760.53
2022-12-06T02:24:14.309Z,101763.84
2022-12-06T02:27:09.829Z,101762.94
2022-12-06T02:30:31.303Z,101760.47
2022-12-06T02:33:13.017Z,101758.75
2022-12-06T02:36:03.680Z,101758.03
2022-12-06T02:38:49.255Z,101761.69
2022-12-06T02:41:29.134Z,101752.59
2022-12-06T02:44:12.735Z,101745.78
2022-12-06T02:46:50.252Z,101747.53
2022-12-06T02:49:27.953Z,101754.13
2022-12-06T02:52:02.769Z,101750.75
2022-12-06T02:54:35.614Z,101747.59
2022-12-06T02:57:08.179Z,101752.69
2022-12-06T02:59:54.167Z,101744.22
2022-12-06T03:02:26.834Z,101745.00
2022-12-06T03:05:25.040Z,101739.34
2022-12-06T03:08:04.267Z,101747.97
2022-12-06T03:10:55.845Z,101745.25
2022-12-06T03:13:50.715Z,101749.75
2022-12-06T03:16:32.725Z,101746.00
2022-12-06T03:19:19.832Z,101745.72
2022-12-06T03:22:08.946Z,101752.78
2022-12-06T03:24:44.345Z,101749.91
2022-12-06T03:27:20.754Z,101753.38
2022-12-06T03:30:00.928Z,101750.94
2022-12-06T03:32:38.188Z,101746.44
2022-12-06T03:35:15.519Z,101754.41
2022-12-06T03:37:57.508Z,101752.69
2022-12-06T03:40:35.107Z,101755.97
2022-12-06T03:43:08.407Z,101751.78
2022-12-06T03:46:01.981Z,101753.44
2022-12-06T03:48:49.333Z,101755.19
2022-12-06T03:51:36.140Z,101751.84
2022-12-06T03:54:08.958Z,101743.91
2022-12-06T03:56:41.559Z,101749.34
2022-12-06T03:59:17.908Z,101755.25
2022-12-06T04:01:50.412Z,101753.59
2022-12-06T04:04:24.959Z,101748.19
2022-12-06T04:06:57.498Z,101747.44
2022-12-06T04:09:48.667Z,101745.50
2022-12-06T04:12:39.836Z,101753.34
2022-12-06T04:15:12.590Z,101746.53
2022-12-06T04:18:03.566Z,101743.69
2022-12-06T04:21:08.539Z,101744.66
2022-12-06T04:23:45.069Z,101742.50
2022-12-06T04:26:22.901Z,101756.69
2022-12-06T04:29:13.940Z,101749.91
2022-12-06T04:32:05.168Z,101751.81
2022-12-06T04:34:56.467Z,101754.50
2022-12-06T04:37:47.767Z,101751.53
2022-12-06T04:40:20.288Z,101755.19
2022-12-06T04:43:11.434Z,101753.13
2022-12-06T04:45:43.967Z,101759.41
2022-12-06T04:48:16.504Z,101749.41
2022-12-06T04:50:50.705Z,101756.88
2022-12-06T04:53:23.429Z,101756.75
2022-12-06T04:55:56.498Z,101753.06
2022-12-06T04:58:28.964Z,101755.06
2022-12-06T05:01:01.987Z,101740.22
2022-12-06T05:03:38.335Z,101743.78
2022-12-06T05:06:13.594Z,101747.34
2022-12-06T05:08:46.140Z,101752.53
2022-12-06T05:11:18.761Z,101745.56
2022-12-06T05:13:51.421Z,101748.81
2022-12-06T05:16:24.077Z,101737.72
2022-12-06T05:18:56.760Z,101739.44
2022-12-06T05:21:29.512Z,101745.66
2022-12-06T05:24:02.057Z,101739.41
2022-12-06T05:26:34.570Z,101739.59
2022-12-06T05:29:07.153Z,101736.94
2022-12-06T05:31:39.765Z,101741.91
2022-12-06T05:34:12.299Z,101740.25
2022-12-06T05:36:45.932Z,101752.44
2022-12-06T05:39:18.500Z,101750.53
2022-12-06T05:41:51.030Z,101744.38
2022-12-06T05:44:23.733Z,101737.72
2022-12-06T05:46:56.267Z,101744.47
2022-12-06T05:49:28.801Z,101740.31
2022-12-06T05:52:04.222Z,101738.59
2022-12-06T05:54:36.990Z,101736.66
2022-12-06T05:57:09.577Z,101745.19
2022-12-06T05:59:42.257Z,101750.66
2022-12-06T06:02:14.937Z,101751.47
2022-12-06T06:04:47.616Z,101745.28
2022-12-06T06:07:20.211Z,101740.25
2022-12-06T06:09:52.712Z,101743.03
2022-12-06T06:12:25.429Z,101746.47
2022-12-06T06:14:57.992Z,101745.66
2022-12-06T06:17:30.631Z,101741.38
2022-12-06T06:20:06.057Z,101748.91
2022-12-06T06:22:40.009Z,101745.41
2022-12-06T06:25:12.551Z,101747.44
2022-12-06T06:27:45.082Z,101748.94
2022-12-06T06:30:18.586Z,101749.75
2022-12-06T06:32:51.229Z,101752.44
2022-12-06T06:35:24.932Z,101744.59
2022-12-06T06:37:57.459Z,101748.09
2022-12-06T06:40:30.557Z,101752.19
2022-12-06T06:43:18.343Z,101744.50
2022-12-06T06:46:03.663Z,101737.25
2022-12-06T06:48:39.044Z,101750.31
2022-12-06T06:51:14.794Z,101739.34
2022-12-06T06:53:47.393Z,101737.34
2022-12-06T06:56:20.204Z,101739.41
2022-12-06T06:58:53.259Z,101746.25
2022-12-06T07:01:25.890Z,101734.91
2022-12-06T07:03:58.720Z,101739.84
2022-12-06T07:06:31.321Z,101737.94
2022-12-06T07:09:04.413Z,101736.13
2022-12-06T07:11:37.672Z,101737.38
2022-12-06T07:14:10.291Z,101741.78
2022-12-06T07:16:42.931Z,101738.53
2022-12-06T07:19:15.451Z,101737.94
2022-12-06T07:21:49.012Z,101737.13
2022-12-06T07:24:21.545Z,101738.00
2022-12-06T07:26:56.703Z,101749.16
2022-12-06T07:29:29.233Z,101743.78
2022-12-06T07:32:01.802Z,101738.91
2022-12-06T07:34:34.382Z,101751.03
2022-12-06T07:37:06.899Z,101749.34
2022-12-06T07:39:39.420Z,101745.69
2022-12-06T07:42:30.934Z,101750.03
2022-12-06T07:45:05.525Z,101755.22
2022-12-06T07:47:42.397Z,101754.72
2022-12-06T07:50:18.973Z,101756.41
2022-12-06T07:52:51.630Z,101756.09
2022-12-06T07:55:24.194Z,101760.34
2022-12-06T07:57:56.787Z,101760.41
2022-12-06T08:00:29.370Z,101765.41
2022-12-06T08:03:02.311Z,101765.81
2022-12-06T08:05:34.924Z,101770.16
2022-12-06T08:08:07.565Z,101770.31
2022-12-06T08:10:40.131Z,101770.13
2022-12-06T08:13:12.811Z,101768.81
2022-12-06T08:15:45.403Z,101759.91
2022-12-06T08:18:17.949Z,101773.09
2022-12-06T08:20:51.125Z,101765.16
2022-12-06T08:23:27.904Z,101770.16
2022-12-06T08:26:08.154Z,101765.47
2022-12-06T08:28:43.245Z,101773.94
2022-12-06T08:31:20.484Z,101765.47
2022-12-06T08:33:53.417Z,101766.53
2022-12-06T08:36:29.289Z,101762.06
2022-12-06T08:39:02.082Z,101772.06
2022-12-06T08:41:53.270Z,101776.81
2022-12-06T08:44:31.410Z,101765.97
2022-12-06T08:47:04.193Z,101776.16
2022-12-06T08:49:36.753Z,101781.41
2022-12-06T08:52:09.973Z,101773.28
2022-12-06T08:54:42.504Z,101777.63
2022-12-06T08:57:15.169Z,101774.19
2022-12-06T08:59:47.777Z,101782.19
2022-12-06T09:02:20.463Z,101775.03
2022-12-06T09:04:53.092Z,101778.41
2022-12-06T09:07:26.492Z,101787.81
2022-12-06T09:09:59.251Z,101788.50
2022-12-06T09:12:32.212Z,101790.53
2022-12-06T09:15:06.034Z,101786.56
2022-12-06T09:17:38.684Z,101792.75
2022-12-06T09:20:17.886Z,101799.53
2022-12-06T09:22:50.452Z,101791.75
2022-12-06T09:25:23.180Z,101786.69
2022-12-06T09:27:55.734Z,101797.13
2022-12-06T09:30:28.257Z,101795.56
2022-12-06T09:33:00.832Z,101785.66
2022-12-06T09:35:35.215Z,101794.59
2022-12-06T09:38:08.356Z,101803.63
2022-12-06T09:41:24.436Z,101801.09
2022-12-06T09:44:24.212Z,101795.19
2022-12-06T09:47:48.014Z,101798.66
2022-12-06T09:50:48.369Z,101796.03
2022-12-06T09:53:45.054Z,101792.56
2022-12-06T09:56:38.837Z,101802.06
2022-12-06T09:59:23.516Z,101802.03
2022-12-06T10:02:21.166Z,101797.94
2022-12-06T10:05:45.963Z,101795.63
2022-12-06T10:08:48.058Z,101787.25
2022-12-06T10:11:41.735Z,101792.28
2022-12-06T10:14:56.521Z,101786.16
2022-12-06T10:17:33.541Z,101784.56
2022-12-06T10:20:38.604Z,101786.78
2022-12-06T10:23:29.421Z,101783.97
2022-12-06T10:26:14.666Z,101789.47
2022-12-06T10:29:02.371Z,101780.84
2022-12-06T10:32:00.692Z,101775.25
2022-12-06T10:34:50.125Z,101777.88
2022-12-06T10:37:46.958Z,101773.31
2022-12-06T10:40:31.310Z,101777.19
2022-12-06T10:43:38.600Z,101784.16
2022-12-06T10:47:05.637Z,101784.47
2022-12-06T10:50:04.221Z,101792.97
2022-12-06T10:53:01.535Z,101786.72
2022-12-06T10:55:54.496Z,101791.81
2022-12-06T10:58:50.160Z,101791.09
2022-12-06T11:01:34.351Z,101787.38
2022-12-06T11:04:27.811Z,101783.78
2022-12-06T11:07:15.698Z,101784.75
2022-12-06T11:09:56.589Z,101787.59
2022-12-06T11:12:34.711Z,101781.50
2022-12-06T11:15:33.273Z,101784.50
2022-12-06T11:18:15.455Z,101780.28
2022-12-06T11:20:58.769Z,101779.59
2022-12-06T11:23:46.477Z,101781.31
2022-12-06T11:26:44.951Z,101772.53
2022-12-06T11:29:18.352Z,101772.81
2022-12-06T11:31:58.358Z,101775.25
2022-12-06T11:34:46.395Z,101765.09
2022-12-06T11:37:27.669Z,101768.72
2022-12-06T11:40:17.092Z,101773.94
2022-12-06T11:42:49.846Z,101757.25
2022-12-06T11:45:27.908Z,101757.47
2022-12-06T11:48:15.284Z,101750.41
2022-12-06T11:50:50.843Z,101743.03
2022-12-06T11:53:42.104Z,101751.53
2022-12-06T11:56:25.015Z,101738.41
2022-12-06T11:59:15.849Z,101734.94
2022-12-06T12:01:51.792Z,101732.06
2022-12-06T12:04:36.546Z,101736.16
2022-12-06T12:07:23.202Z,101735.53
2022-12-06T12:10:36.377Z,101722.41
2022-12-06T12:13:42.047Z,101720.56
2022-12-06T12:16:29.646Z,101725.88
2022-12-06T12:19:51.994Z,101721.28
2022-12-06T12:22:29.133Z,101723.00
2022-12-06T12:25:25.990Z,101720.22
2022-12-06T12:28:01.949Z,101713.47
2022-12-06T12:30:38.065Z,101707.94
2022-12-06T12:33:17.777Z,101700.31
2022-12-06T12:35:55.956Z,101710.69
2022-12-06T12:38:42.172Z,101708.25
2022-12-06T12:41:29.107Z,101705.69
2022-12-06T12:44:42.438Z,101707.41
2022-12-06T12:47:20.601Z,101711.94
2022-12-06T12:50:23.834Z,101705.47
2022-12-06T12:52:56.717Z,101700.59
2022-12-06T12:55:31.300Z,101706.75
2022-12-06T12:58:11.709Z,101696.09
2022-12-06T13:00:49.035Z,101699.66
2022-12-06T13:06:29.338Z,101702.44
2022-12-06T13:09:05.632Z,101691.94
2022-12-06T13:11:45.370Z,101696.47
2022-12-06T13:14:25.290Z,101690.22
2022-12-06T13:17:06.713Z,101698.88
2022-12-06T13:19:51.731Z,101695.59
2022-12-06T13:22:38.986Z,101690.09
2022-12-06T13:25:11.897Z,101699.28
2022-12-06T13:27:51.584Z,101689.53
2022-12-06T13:30:30.352Z,101686.09
2022-12-06T13:33:20.490Z,101689.53
2022-12-06T13:36:08.214Z,101688.81
2022-12-06T13:38:42.365Z,101695.88
2022-12-06T13:41:58.605Z,101687.03
2022-12-06T13:45:00.607Z,101678.22
2022-12-06T13:47:33.065Z,101679.94
2022-12-06T13:50:17.804Z,101673.78
2022-12-06T13:52:50.235Z,101679.94
2022-12-06T13:55:25.946Z,101672.81
2022-12-06T13:57:58.517Z,101667.56
2022-12-06T14:00:30.956Z,101668.47
2022-12-06T14:03:19.003Z,101665.00
2022-12-06T14:06:14.432Z,101663.16
2022-12-06T14:09:00.998Z,101663.31
2022-12-06T14:11:39.538Z,101664.91
2022-12-06T14:14:25.415Z,101671.13
2022-12-06T14:17:11.449Z,101668.56
2022-12-06T14:19:48.720Z,101670.28
2022-12-06T14:22:34.533Z,101666.78
2022-12-06T14:25:28.371Z,101669.50
2022-12-06T14:28:12.567Z,101668.53
2022-12-06T14:30:46.150Z,101667.75
2022-12-06T14:33:23.328Z,101660.72
2022-12-06T14:35:56.745Z,101655.34
2022-12-06T14:38:31.647Z,101654.50
2022-12-06T14:41:22.520Z,101656.38
2022-12-06T14:43:55.041Z,101654.53
2022-12-06T14:46:28.016Z,101652.72
2022-12-06T14:49:19.460Z,101650.13
2022-12-06T14:51:53.668Z,101637.72
2022-12-06T14:54:41.860Z,101650.09
2022-12-06T14:57:38.817Z,101645.72
2022-12-06T15:00:26.546Z,101643.88
2022-12-06T15:03:29.802Z,101634.31
2022-12-06T15:06:21.926Z,101636.91
2022-12-06T15:08:57.170Z,101641.31
2022-12-06T15:11:48.182Z,101636.81
2022-12-06T15:14:23.447Z,101642.06
2022-12-06T15:17:05.207Z,101638.53
2022-12-06T15:19:45.021Z,101641.19
2022-12-06T15:22:25.727Z,101635.88
2022-12-06T15:25:00.133Z,101633.25
2022-12-06T15:27:34.141Z,101646.50
2022-12-06T15:30:09.215Z,101645.47
2022-12-06T15:32:41.761Z,101652.59
2022-12-06T15:35:18.640Z,101648.03
2022-12-06T15:37:51.309Z,101637.34
2022-12-06T15:40:23.790Z,101650.66
2022-12-06T15:43:02.014Z,101644.47
2022-12-06T15:45:34.991Z,101641.84
2022-12-06T15:48:08.797Z,101637.31
2022-12-06T15:50:41.541Z,101635.56
2022-12-06T15:53:17.477Z,101631.34
2022-12-06T15:55:50.956Z,101633.09
2022-12-06T15:58:23.692Z,101646.25
2022-12-06T16:00:57.530Z,101648.91
2022-12-06T16:03:33.085Z,101646.25
2022-12-06T16:06:05.942Z,101633.03
2022-12-06T16:08:38.477Z,101647.06
2022-12-06T16:11:18.139Z,101641.72
2022-12-06T16:13:51.134Z,101649.50
2022-12-06T16:16:24.224Z,101649.50
2022-12-06T16:18:56.832Z,101640.59
2022-12-06T16:21:50.800Z,101640.72
2022-12-06T16:24:23.699Z,101638.09
2022-12-06T16:26:56.256Z,101636.31
2022-12-06T16:29:28.728Z,101635.38
2022-12-06T16:32:01.380Z,101630.19
2022-12-06T16:34:34.027Z,101638.91
2022-12-06T16:37:06.658Z,101638.13
2022-12-06T16:39:39.378Z,101631.16
2022-12-06T16:42:11.946Z,101635.50
2022-12-06T16:44:53.332Z,101620.56
2022-12-06T16:49:57.237Z,101617.97
2022-12-06T16:52:29.735Z,101615.25
2022-12-06T16:55:02.664Z,101617.69
2022-12-06T16:57:35.353Z,101617.84
2022-12-06T17:00:10.405Z,101608.94
2022-12-06T17:02:44.721Z,101615.88
2022-12-06T17:05:23.631Z,101620.16
2022-12-06T17:07:56.296Z,101606.13
2022-12-06T17:10:29.145Z,101608.72
2022-12-06T17:13:02.109Z,101603.44
2022-12-06T17:15:34.583Z,101605.16
2022-12-06T17:18:07.320Z,101617.53
2022-12-06T17:20:39.962Z,101606.22
2022-12-06T17:23:12.521Z,101602.69
2022-12-06T17:25:45.009Z,101604.47
2022-12-06T17:28:17.585Z,101606.22
2022-12-06T17:30:51.366Z,101601.78
2022-12-06T17:33:24.008Z,101605.38
2022-12-06T17:35:56.513Z,101609.63
2022-12-06T17:38:29.650Z,101609.66
2022-12-06T17:41:22.261Z,101610.47
2022-12-06T17:43:54.740Z,101611.41
2022-12-06T17:46:28.683Z,101607.88
2022-12-06T17:49:01.539Z,101607.78
2022-12-06T17:51:34.116Z,101605.00
2022-12-06T17:54:09.397Z,101603.31
2022-12-06T17:56:51.827Z,101603.47
2022-12-06T17:59:30.205Z,101592.94
2022-12-06T18:02:18.910Z,101592.00
2022-12-06T18:04:53.812Z,101597.09
2022-12-06T18:07:26.514Z,101603.38
2022-12-06T18:09:59.124Z,101597.25
2022-12-06T18:12:32.152Z,101602.19
2022-12-06T18:15:28.279Z,101593.41
2022-12-06T18:18:00.815Z,101591.78
2022-12-06T18:20:33.379Z,101594.06
2022-12-06T18:23:05.879Z,101593.56
2022-12-06T18:25:42.104Z,101594.34
2022-12-06T18:28:14.613Z,101587.41
2022-12-06T18:30:47.172Z,101585.56
2022-12-06T18:33:22.577Z,101592.44
2022-12-06T18:35:57.072Z,101591.66
2022-12-06T18:38:30.173Z,101582.81
2022-12-06T18:41:13.592Z,101594.84
2022-12-06T18:43:47.213Z,101583.66
2022-12-06T18:46:23.967Z,101591.53
2022-12-06T18:49:00.089Z,101582.06
2022-12-06T18:51:35.262Z,101589.81
2022-12-06T18:54:08.911Z,101593.94
2022-12-06T18:56:42.303Z,101587.06
2022-12-06T18:59:14.884Z,101584.44
2022-12-06T19:01:47.478Z,101594.06
2022-12-06T19:04:20.160Z,101580.03
2022-12-06T19:06:52.919Z,101582.53
2022-12-06T19:09:25.555Z,101573.03
2022-12-06T19:11:58.144Z,101576.56
2022-12-06T19:14:30.666Z,101578.06
2022-12-06T19:17:03.238Z,101576.59
2022-12-06T19:19:35.908Z,101576.44
2022-12-06T19:22:08.990Z,101573.66
2022-12-06T19:24:41.718Z,101583.41
2022-12-06T19:27:14.220Z,101572.75
2022-12-06T19:29:48.293Z,101578.13
2022-12-06T19:32:21.027Z,101581.69
2022-12-06T19:34:55.740Z,101581.50
2022-12-06T19:37:28.644Z,101581.66
2022-12-06T19:40:01.577Z,101576.56
2022-12-06T19:42:53.608Z,101585.03
2022-12-06T19:45:26.266Z,101577.88
2022-12-06T19:47:58.780Z,101578.91
2022-12-06T19:50:34.642Z,101577.91
2022-12-06T19:53:07.307Z,101587.31
2022-12-06T19:55:48.647Z,101583.94
2022-12-06T19:58:23.648Z,101587.50
2022-12-06T20:00:56.318Z,101591.00
2022-12-06T20:03:28.860Z,101586.50
2022-12-06T20:06:17.919Z,101587.97
2022-12-06T20:08:53.028Z,101592.59
2022-12-06T20:11:46.696Z,101588.13
2022-12-06T20:14:19.704Z,101586.34
2022-12-06T20:16:52.655Z,101580.19
2022-12-06T20:19:25.528Z,101586.94
2022-12-06T20:21:58.246Z,101587.00
2022-12-06T20:24:32.444Z,101593.09
2022-12-06T20:27:05.635Z,101594.22
2022-12-06T20:29:38.293Z,101581.34
2022-12-06T20:32:11.666Z,101584.59
2022-12-06T20:34:44.191Z,101579.50
2022-12-06T20:37:16.758Z,101586.59
2022-12-06T20:39:49.318Z,101590.13
2022-12-06T20:42:21.939Z,101585.59
2022-12-06T20:44:54.479Z,101577.88
2022-12-06T20:47:27.294Z,101578.78
2022-12-06T20:50:00.591Z,101585.66
2022-12-06T20:52:33.611Z,101584.06
2022-12-06T20:55:06.596Z,101582.25
2022-12-06T20:57:39.367Z,101568.13
2022-12-06T21:00:12.892Z,101581.31
2022-12-06T21:02:45.987Z,101577.91
2022-12-06T21:05:19.085Z,101577.91
2022-12-06T21:07:51.877Z,101577.91
2022-12-06T21:10:24.504Z,101569.28
2022-12-06T21:12:59.504Z,101574.19
2022-12-06T21:15:35.486Z,101576.19
2022-12-06T21:18:08.120Z,101577.88
2022-12-06T21:20:40.776Z,101573.56
2022-12-06T21:23:13.320Z,101581.53
2022-12-06T21:25:45.943Z,101576.34
2022-12-06T21:28:18.673Z,101575.34
2022-12-06T21:30:53.768Z,101581.44
2022-12-06T21:33:26.778Z,101571.03
2022-12-06T21:36:05.799Z,101564.84
2022-12-06T21:38:39.283Z,101558.72
2022-12-06T21:41:13.898Z,101558.91
2022-12-06T21:43:46.955Z,101563.19
2022-12-06T21:46:23.518Z,101554.28
2022-12-06T21:48:59.660Z,101561.13
2022-12-06T21:51:32.789Z,101562.03
2022-12-06T21:54:05.441Z,101569.50
2022-12-06T21:56:38.273Z,101575.69
2022-12-06T21:59:10.920Z,101564.50
2022-12-06T22:01:43.495Z,101577.31
2022-12-06T22:04:16.302Z,101587.75
2022-12-06T22:06:48.860Z,101582.53
2022-12-06T22:09:21.540Z,101582.63
2022-12-06T22:11:54.337Z,101581.00
2022-12-06T22:14:26.974Z,101583.56
2022-12-06T22:16:59.557Z,101582.81
2022-12-06T22:19:32.277Z,101582.66
2022-12-06T22:22:05.341Z,101573.88
2022-12-06T22:24:37.964Z,101577.53
2022-12-06T22:27:10.473Z,101580.91
2022-12-06T22:29:43.044Z,101584.38
2022-12-06T22:32:15.583Z,101580.16
2022-12-06T22:34:48.213Z,101586.19
2022-12-06T22:37:25.324Z,101580.28
2022-12-06T22:40:01.011Z,101576.66
2022-12-06T22:42:35.318Z,101573.22
2022-12-06T22:45:08.871Z,101571.47
2022-12-06T22:47:41.430Z,101570.44
2022-12-06T22:50:13.952Z,101572.09
2022-12-06T22:52:46.611Z,101569.31
2022-12-06T22:55:19.132Z,101567.69
2022-12-06T22:57:51.703Z,101565.72
2022-12-06T23:00:24.599Z,101558.78
2022-12-06T23:02:58.742Z,101562.44
2022-12-06T23:05:31.280Z,101569.84
2022-12-06T23:08:04.197Z,101563.88
2022-12-06T23:10:36.762Z,101573.16
2022-12-06T23:13:09.416Z,101560.97
2022-12-06T23:15:42.142Z,101567.66
2022-12-06T23:18:14.672Z,101560.91
2022-12-06T23:20:47.279Z,101572.13
2022-12-06T23:23:19.813Z,101579.19
2022-12-06T23:25:52.411Z,101573.75
2022-12-06T23:28:24.937Z,101574.06
2022-12-06T23:31:12.898Z,101579.19
2022-12-06T23:33:46.929Z,101580.00
2022-12-06T23:36:23.529Z,101565.34
2022-12-06T23:38:56.431Z,101566.03
2022-12-06T23:41:31.590Z,101574.91
2022-12-06T23:44:06.203Z,101579.25
2022-12-06T23:46:41.585Z,101575.59
2022-12-06T23:49:18.752Z,101573.50
2022-12-06T23:51:51.567Z,101573.53
2022-12-06T23:54:24.187Z,101580.00
2022-12-06T23:56:56.737Z,101576.19
2022-12-06T23:59:29.288Z,101570.97
